createdAt,value
2022-10-07T00:00:36.322Z,10.73
2022-10-07T00:01:23.526Z,11.18
2022-10-07T00:02:10.612Z,11.15
2022-10-07T00:02:57.610Z,12.93
2022-10-07T00:03:44.530Z,12.48
2022-10-07T00:04:31.409Z,14.35
2022-10-07T00:05:18.380Z,11.27
2022-10-07T00:06:16.472Z,13.30
2022-10-07T00:07:03.640Z,15.57
2022-10-07T00:07:50.499Z,13.18
2022-10-07T00:08:38.550Z,12.05
2022-10-07T00:09:25.529Z,11.25
2022-10-07T00:10:12.441Z,12.75
2022-10-07T00:11:07.840Z,11.88
2022-10-07T00:11:55.292Z,12.45
2022-10-07T00:12:42.581Z,11.57
2022-10-07T00:13:29.550Z,11.68
2022-10-07T00:14:16.470Z,12.32
2022-10-07T00:15:03.660Z,13.18
2022-10-07T00:15:50.823Z,10.25
2022-10-07T00:16:40.097Z,11.20
2022-10-07T00:17:26.989Z,11.35
2022-10-07T00:18:13.831Z,10.60
2022-10-07T00:19:03.134Z,10.57
2022-10-07T00:19:50.049Z,10.73
2022-10-07T00:20:40.709Z,13.30
2022-10-07T00:22:16.539Z,12.00
2022-10-07T00:23:03.440Z,12.43
2022-10-07T00:23:50.450Z,10.93
2022-10-07T00:24:37.300Z,12.40
2022-10-07T00:25:24.219Z,11.75
2022-10-07T00:26:13.581Z,11.40
2022-10-07T00:27:00.700Z,10.23
2022-10-07T00:27:47.633Z,12.07
2022-10-07T00:28:35.357Z,10.30
2022-10-07T00:29:22.470Z,12.35
2022-10-07T00:30:10.531Z,9.85
2022-10-07T00:30:59.577Z,11.10
2022-10-07T00:31:46.520Z,10.27
2022-10-07T00:32:33.620Z,12.23
2022-10-07T00:33:20.569Z,9.98
2022-10-07T00:34:07.887Z,12.30
2022-10-07T00:34:54.820Z,12.20
2022-10-07T00:35:41.835Z,12.18
2022-10-07T00:36:36.967Z,10.85
2022-10-07T00:37:23.846Z,11.40
2022-10-07T00:38:10.815Z,10.50
2022-10-07T00:39:07.844Z,14.30
2022-10-07T00:39:54.624Z,12.50
2022-10-07T00:40:41.633Z,14.43
2022-10-07T00:41:38.163Z,12.80
2022-10-07T00:42:25.103Z,11.90
2022-10-07T00:43:27.454Z,11.77
2022-10-07T00:44:32.653Z,12.95
2022-10-07T00:45:22.669Z,10.55
2022-10-07T00:46:38.513Z,11.68
2022-10-07T00:47:29.873Z,11.98
2022-10-07T00:48:21.664Z,10.52
2022-10-07T00:49:12.184Z,11.48
2022-10-07T00:50:04.981Z,12.63
2022-10-07T00:50:54.776Z,11.65
2022-10-07T00:51:43.564Z,12.85
2022-10-07T00:52:32.914Z,11.07
2022-10-07T00:53:20.688Z,12.95
2022-10-07T00:54:12.266Z,11.02
2022-10-07T00:55:02.654Z,11.27
2022-10-07T00:55:49.583Z,24.40
2022-10-07T00:56:36.464Z,13.15
2022-10-07T00:57:25.296Z,12.32
2022-10-07T00:58:12.554Z,10.98
2022-10-07T00:58:59.674Z,12.32
2022-10-07T00:59:46.615Z,12.20
2022-10-07T01:00:33.443Z,12.37
2022-10-07T01:01:20.769Z,13.07
2022-10-07T01:02:08.539Z,13.40
2022-10-07T01:02:55.501Z,12.30
2022-10-07T01:03:42.496Z,11.07
2022-10-07T01:04:29.354Z,12.57
2022-10-07T01:05:16.654Z,12.32
2022-10-07T01:06:05.094Z,10.82
2022-10-07T01:06:52.034Z,10.70
2022-10-07T01:07:39.395Z,13.15
2022-10-07T01:08:26.264Z,14.18
2022-10-07T01:09:13.462Z,11.50
2022-10-07T01:10:01.067Z,10.57
2022-10-07T01:10:47.963Z,10.40
2022-10-07T01:11:57.635Z,14.80
2022-10-07T01:12:47.162Z,9.63
2022-10-07T01:13:42.485Z,14.25
2022-10-07T01:14:35.552Z,12.98
2022-10-07T01:15:25.245Z,12.63
2022-10-07T01:16:37.695Z,14.48
2022-10-07T01:17:40.564Z,10.93
2022-10-07T01:18:37.629Z,11.73
2022-10-07T01:19:36.157Z,12.32
2022-10-07T01:20:45.614Z,10.45
2022-10-07T01:21:43.733Z,12.93
2022-10-07T01:22:55.674Z,13.35
2022-10-07T01:23:48.315Z,10.60
2022-10-07T01:25:12.775Z,12.45
2022-10-07T01:26:09.613Z,12.60
2022-10-07T01:27:16.727Z,13.60
2022-10-07T01:28:21.158Z,14.45
2022-10-07T01:29:21.963Z,15.15
2022-10-07T01:30:09.546Z,13.48
2022-10-07T01:30:59.050Z,11.45
2022-10-07T01:32:17.546Z,12.10
2022-10-07T01:33:05.595Z,15.05
2022-10-07T01:33:53.710Z,12.93
2022-10-07T01:34:42.354Z,14.60
2022-10-07T01:35:33.755Z,14.87
2022-10-07T01:36:23.796Z,13.15
2022-10-07T01:37:12.854Z,14.75
2022-10-07T01:38:04.563Z,15.23
2022-10-07T01:38:54.245Z,16.83
2022-10-07T01:39:47.036Z,14.07
2022-10-07T01:40:37.604Z,14.23
2022-10-07T01:41:25.267Z,16.30
2022-10-07T01:42:12.385Z,18.12
2022-10-07T01:42:59.824Z,16.58
2022-10-07T01:43:48.344Z,13.50
2022-10-07T01:44:35.704Z,12.65
2022-10-07T01:45:25.137Z,15.05
2022-10-07T01:46:18.478Z,13.07
2022-10-07T01:47:05.444Z,16.77
2022-10-07T01:47:52.496Z,12.68
2022-10-07T01:48:39.667Z,15.63
2022-10-07T01:49:27.023Z,16.17
2022-10-07T01:50:14.865Z,13.75
2022-10-07T01:51:02.506Z,13.00
2022-10-07T01:52:10.915Z,19.90
2022-10-07T01:53:35.694Z,13.43
2022-10-07T01:54:53.666Z,19.20
2022-10-07T01:55:52.535Z,17.20
2022-10-07T01:57:08.027Z,13.13
2022-10-07T01:58:01.046Z,13.88
2022-10-07T01:58:58.754Z,13.57
2022-10-07T02:00:05.011Z,17.58
2022-10-07T02:01:20.276Z,14.18
2022-10-07T02:02:14.275Z,12.52
2022-10-07T02:03:01.783Z,13.93
2022-10-07T02:04:12.065Z,13.98
2022-10-07T02:04:59.365Z,16.10
2022-10-07T02:06:11.275Z,14.25
2022-10-07T02:07:29.457Z,14.23
2022-10-07T02:08:39.887Z,15.30
2022-10-07T02:10:04.517Z,15.15
2022-10-07T02:11:37.656Z,15.63
2022-10-07T02:12:37.106Z,14.40
2022-10-07T02:13:51.185Z,15.85
2022-10-07T02:15:10.775Z,13.27
2022-10-07T02:16:20.244Z,15.43
2022-10-07T02:17:11.933Z,16.62
2022-10-07T02:18:02.876Z,16.70
2022-10-07T02:18:52.256Z,17.10
2022-10-07T02:19:44.193Z,17.00
2022-10-07T02:20:33.646Z,18.75
2022-10-07T02:21:24.127Z,20.35
2022-10-07T02:22:11.864Z,14.30
2022-10-07T02:23:01.186Z,18.45
2022-10-07T02:23:49.158Z,18.62
2022-10-07T02:24:38.418Z,16.00
2022-10-07T02:25:25.707Z,16.48
2022-10-07T02:26:14.177Z,18.52
2022-10-07T02:27:13.185Z,16.02
2022-10-07T02:28:03.788Z,16.10
2022-10-07T02:29:40.535Z,15.98
2022-10-07T02:30:27.413Z,15.85
2022-10-07T02:31:18.450Z,21.80
2022-10-07T02:32:09.997Z,16.30
2022-10-07T02:32:59.825Z,17.27
2022-10-07T02:33:47.516Z,17.48
2022-10-07T02:34:36.475Z,15.52
2022-10-07T02:35:31.936Z,15.98
2022-10-07T02:36:22.727Z,16.20
2022-10-07T02:37:18.286Z,17.92
2022-10-07T02:38:07.766Z,16.73
2022-10-07T02:38:56.428Z,18.52
2022-10-07T02:39:45.566Z,17.23
2022-10-07T02:40:36.935Z,18.45
2022-10-07T02:41:42.575Z,18.20
2022-10-07T02:43:12.998Z,18.05
2022-10-07T02:44:09.042Z,16.80
2022-10-07T02:45:02.476Z,17.40
2022-10-07T02:45:55.089Z,18.17
2022-10-07T02:46:49.366Z,18.75
2022-10-07T02:48:22.390Z,18.92
2022-10-07T02:49:12.155Z,18.12
2022-10-07T02:50:01.508Z,19.55
2022-10-07T02:50:52.326Z,17.33
2022-10-07T02:51:43.496Z,20.00
2022-10-07T02:52:31.625Z,18.37
2022-10-07T02:53:20.879Z,17.00
2022-10-07T02:54:07.717Z,18.25
2022-10-07T02:55:08.876Z,18.27
2022-10-07T02:55:56.795Z,18.33
2022-10-07T02:56:44.267Z,17.80
2022-10-07T02:57:34.566Z,20.70
2022-10-07T02:58:22.596Z,18.12
2022-10-07T02:59:11.755Z,18.45
2022-10-07T02:59:59.176Z,21.17
2022-10-07T03:00:51.247Z,19.08
2022-10-07T03:01:41.623Z,21.08
2022-10-07T03:02:50.838Z,18.65
2022-10-07T03:03:38.573Z,17.48
2022-10-07T03:04:25.546Z,19.65
2022-10-07T03:05:13.627Z,15.60
2022-10-07T03:06:00.940Z,16.75
2022-10-07T03:06:47.746Z,16.23
2022-10-07T03:07:35.549Z,17.02
2022-10-07T03:08:22.985Z,18.95
2022-10-07T03:09:10.146Z,19.23
2022-10-07T03:09:57.025Z,18.25
2022-10-07T03:10:44.114Z,21.45
2022-10-07T03:11:31.236Z,18.70
2022-10-07T03:12:18.198Z,21.17
2022-10-07T03:13:06.146Z,17.17
2022-10-07T03:13:54.105Z,16.67
2022-10-07T03:14:41.375Z,17.35
2022-10-07T03:15:28.718Z,17.35
2022-10-07T03:16:15.848Z,18.52
2022-10-07T03:17:03.406Z,19.37
2022-10-07T03:17:50.686Z,17.67
2022-10-07T03:18:37.555Z,22.05
2022-10-07T03:19:24.455Z,16.90
2022-10-07T03:20:11.847Z,16.75
2022-10-07T03:21:01.227Z,22.85
2022-10-07T03:21:48.282Z,17.95
2022-10-07T03:22:35.375Z,17.30
2022-10-07T03:23:26.226Z,16.73
2022-10-07T03:24:13.206Z,19.27
2022-10-07T03:25:00.081Z,18.23
2022-10-07T03:25:54.256Z,18.60
2022-10-07T03:26:41.196Z,18.30
2022-10-07T03:27:29.367Z,19.23
2022-10-07T03:28:16.311Z,16.95
2022-10-07T03:29:05.156Z,19.23
2022-10-07T03:29:52.020Z,18.48
2022-10-07T03:30:39.145Z,17.65
2022-10-07T03:31:26.461Z,18.05
2022-10-07T03:32:13.396Z,17.50
2022-10-07T03:33:00.397Z,18.40
2022-10-07T03:33:47.279Z,17.85
2022-10-07T03:34:34.173Z,20.50
2022-10-07T03:35:21.006Z,15.57
2022-10-07T03:36:08.769Z,18.52
2022-10-07T03:36:55.665Z,17.95
2022-10-07T03:37:43.388Z,15.55
2022-10-07T03:38:30.606Z,20.62
2022-10-07T03:39:17.677Z,17.20
2022-10-07T03:40:05.216Z,17.73
2022-10-07T03:40:52.066Z,16.23
2022-10-07T03:41:38.997Z,15.27
2022-10-07T03:42:25.875Z,16.95
2022-10-07T03:43:12.756Z,15.73
2022-10-07T03:43:59.623Z,16.73
2022-10-07T03:44:46.546Z,19.65
2022-10-07T03:45:35.506Z,24.23
2022-10-07T03:46:22.358Z,17.35
2022-10-07T03:47:10.816Z,18.10
2022-10-07T03:47:58.957Z,18.70
2022-10-07T03:48:46.586Z,23.58
2022-10-07T03:49:33.507Z,17.77
2022-10-07T03:50:20.505Z,16.70
2022-10-07T03:51:07.340Z,21.08
2022-10-07T03:51:54.289Z,20.37
2022-10-07T03:52:41.376Z,17.48
2022-10-07T03:53:31.507Z,19.55
2022-10-07T03:54:18.386Z,19.92
2022-10-07T03:55:05.646Z,18.23
2022-10-07T03:55:52.688Z,18.77
2022-10-07T03:56:39.556Z,18.12
2022-10-07T03:57:45.131Z,15.82
2022-10-07T03:58:32.267Z,18.48
2022-10-07T03:59:19.246Z,17.60
2022-10-07T04:00:06.595Z,15.93
2022-10-07T04:01:04.465Z,16.70
2022-10-07T04:01:51.464Z,16.95
2022-10-07T04:02:38.465Z,14.98
2022-10-07T04:03:25.627Z,16.80
2022-10-07T04:04:12.607Z,18.65
2022-10-07T04:04:59.537Z,22.17
2022-10-07T04:05:59.613Z,20.65
2022-10-07T04:06:46.601Z,17.60
2022-10-07T04:07:33.649Z,16.80
2022-10-07T04:08:20.476Z,15.50
2022-10-07T04:09:07.620Z,18.25
2022-10-07T04:09:54.575Z,20.10
2022-10-07T04:10:41.526Z,16.92
2022-10-07T04:11:28.390Z,17.62
2022-10-07T04:12:15.722Z,24.35
2022-10-07T04:13:02.525Z,19.65
2022-10-07T04:13:49.421Z,19.67
2022-10-07T04:14:36.351Z,16.87
2022-10-07T04:15:23.347Z,17.75
2022-10-07T04:16:11.315Z,16.40
2022-10-07T04:16:58.341Z,17.25
2022-10-07T04:17:46.957Z,17.27
2022-10-07T04:18:34.007Z,16.75
2022-10-07T04:19:21.055Z,18.40
2022-10-07T04:20:08.626Z,16.42
2022-10-07T04:21:00.119Z,18.27
2022-10-07T04:21:46.998Z,20.62
2022-10-07T04:22:33.947Z,16.95
2022-10-07T04:23:20.756Z,16.40
2022-10-07T04:24:07.638Z,16.75
2022-10-07T04:25:13.397Z,17.02
2022-10-07T04:26:00.997Z,18.45
2022-10-07T04:26:47.847Z,18.27
2022-10-07T04:27:51.205Z,15.55
2022-10-07T04:28:39.196Z,17.92
2022-10-07T04:29:26.166Z,17.70
2022-10-07T04:30:14.217Z,20.75
2022-10-07T04:31:06.671Z,18.60
2022-10-07T04:31:54.548Z,18.15
2022-10-07T04:32:41.525Z,19.27
2022-10-07T04:33:30.136Z,20.00
2022-10-07T04:34:17.015Z,20.25
2022-10-07T04:35:05.457Z,18.67
2022-10-07T04:35:52.396Z,19.73
2022-10-07T04:36:39.298Z,17.85
2022-10-07T04:37:26.524Z,20.08
2022-10-07T04:38:16.117Z,17.65
2022-10-07T04:39:03.065Z,18.30
2022-10-07T04:40:00.722Z,17.20
2022-10-07T04:40:50.229Z,18.27
2022-10-07T04:41:37.166Z,18.35
2022-10-07T04:42:42.777Z,18.10
2022-10-07T04:43:34.171Z,21.17
2022-10-07T04:44:21.095Z,22.13
2022-10-07T04:45:09.166Z,19.55
2022-10-07T04:46:09.736Z,21.52
2022-10-07T04:46:57.205Z,26.85
2022-10-07T04:47:45.919Z,20.70
2022-10-07T04:48:33.454Z,23.17
2022-10-07T04:49:20.346Z,22.45
2022-10-07T04:50:08.107Z,28.30
2022-10-07T04:50:55.195Z,20.25
2022-10-07T04:51:42.097Z,21.58
2022-10-07T04:52:28.948Z,19.77
2022-10-07T04:53:17.229Z,23.30
2022-10-07T04:54:04.446Z,19.30
2022-10-07T04:54:52.005Z,22.30
2022-10-07T04:55:43.715Z,19.67
2022-10-07T04:56:31.602Z,18.92
2022-10-07T04:57:18.566Z,22.13
2022-10-07T04:58:05.956Z,19.20
2022-10-07T04:58:52.817Z,19.62
2022-10-07T04:59:42.858Z,21.83
2022-10-07T05:00:30.245Z,20.25
2022-10-07T05:01:17.237Z,20.40
2022-10-07T05:02:04.250Z,21.60
2022-10-07T05:02:51.251Z,21.85
2022-10-07T05:03:40.020Z,22.77
2022-10-07T05:04:26.983Z,23.60
2022-10-07T05:05:14.094Z,18.25
2022-10-07T05:06:06.276Z,20.30
2022-10-07T05:06:53.324Z,17.92
2022-10-07T05:07:40.182Z,18.50
2022-10-07T05:08:27.218Z,19.40
2022-10-07T05:09:14.746Z,20.83
2022-10-07T05:10:01.586Z,17.40
2022-10-07T05:10:48.476Z,20.60
2022-10-07T05:11:35.416Z,21.20
2022-10-07T05:12:22.285Z,22.17
2022-10-07T05:13:13.608Z,19.15
2022-10-07T05:14:02.267Z,21.85
2022-10-07T05:14:49.237Z,22.77
2022-10-07T05:15:36.105Z,17.62
2022-10-07T05:16:22.957Z,20.08
2022-10-07T05:17:10.216Z,20.50
2022-10-07T05:17:57.137Z,21.02
2022-10-07T05:18:44.086Z,17.35
2022-10-07T05:19:31.106Z,21.05
2022-10-07T05:20:17.965Z,21.92
2022-10-07T05:21:06.692Z,20.12
2022-10-07T05:21:53.595Z,18.67
2022-10-07T05:22:40.425Z,21.80
2022-10-07T05:23:29.044Z,20.33
2022-10-07T05:24:15.907Z,19.40
2022-10-07T05:25:02.905Z,19.20
2022-10-07T05:25:58.807Z,20.02
2022-10-07T05:26:45.565Z,19.35
2022-10-07T05:27:33.065Z,18.62
2022-10-07T05:28:20.156Z,22.40
2022-10-07T05:29:07.155Z,19.87
2022-10-07T05:29:54.148Z,21.75
2022-10-07T05:30:41.921Z,19.40
2022-10-07T05:31:28.949Z,20.00
2022-10-07T05:32:16.065Z,16.87
2022-10-07T05:33:03.116Z,22.37
2022-10-07T05:33:50.085Z,18.62
2022-10-07T05:34:36.896Z,18.52
2022-10-07T05:35:23.717Z,18.52
2022-10-07T05:36:11.857Z,18.83
2022-10-07T05:36:59.655Z,19.05
2022-10-07T05:37:50.980Z,20.48
2022-10-07T05:38:38.285Z,21.98
2022-10-07T05:39:25.437Z,19.20
2022-10-07T05:40:13.016Z,19.30
2022-10-07T05:41:01.490Z,17.98
2022-10-07T05:41:48.409Z,21.00
2022-10-07T05:42:35.226Z,20.85
2022-10-07T05:43:22.080Z,19.48
2022-10-07T05:44:09.019Z,21.15
2022-10-07T05:44:55.845Z,18.12
2022-10-07T05:45:42.695Z,22.45
2022-10-07T05:46:29.695Z,20.17
2022-10-07T05:47:18.445Z,22.35
2022-10-07T05:48:05.738Z,19.65
2022-10-07T05:48:53.637Z,18.70
2022-10-07T05:49:41.585Z,19.48
2022-10-07T05:50:28.445Z,17.45
2022-10-07T05:51:15.676Z,22.33
2022-10-07T05:52:03.446Z,15.55
2022-10-07T05:52:52.187Z,18.87
2022-10-07T05:53:41.501Z,17.48
2022-10-07T05:54:28.545Z,19.33
2022-10-07T05:55:15.886Z,19.37
2022-10-07T05:56:06.825Z,16.30
2022-10-07T05:56:54.186Z,18.40
2022-10-07T05:57:41.655Z,17.15
2022-10-07T05:58:28.731Z,18.17
2022-10-07T05:59:15.566Z,18.48
2022-10-07T06:00:04.366Z,17.35
2022-10-07T06:00:57.342Z,18.42
2022-10-07T06:01:47.334Z,16.90
2022-10-07T06:02:34.644Z,18.90
2022-10-07T06:03:22.422Z,20.95
2022-10-07T06:04:09.565Z,17.42
2022-10-07T06:04:56.424Z,19.45
2022-10-07T06:05:45.855Z,18.42
2022-10-07T06:06:32.705Z,18.30
2022-10-07T06:07:21.991Z,18.90
2022-10-07T06:08:10.372Z,16.00
2022-10-07T06:09:17.381Z,15.98
2022-10-07T06:10:22.996Z,15.82
2022-10-07T06:11:29.992Z,17.98
2022-10-07T06:12:35.475Z,15.10
2022-10-07T06:13:24.176Z,17.75
2022-10-07T06:14:12.565Z,18.45
2022-10-07T06:14:59.655Z,18.33
2022-10-07T06:15:46.519Z,17.05
2022-10-07T06:16:33.617Z,15.15
2022-10-07T06:17:20.475Z,16.35
2022-10-07T06:18:07.300Z,19.70
2022-10-07T06:18:55.205Z,22.55
2022-10-07T06:19:42.236Z,16.83
2022-10-07T06:20:29.216Z,17.05
2022-10-07T06:21:16.347Z,17.23
2022-10-07T06:22:03.235Z,19.08
2022-10-07T06:22:50.145Z,20.92
2022-10-07T06:23:37.835Z,17.77
2022-10-07T06:24:26.054Z,16.20
2022-10-07T06:25:12.856Z,17.23
2022-10-07T06:26:02.144Z,16.75
2022-10-07T06:26:49.276Z,14.43
2022-10-07T06:27:36.345Z,19.55
2022-10-07T06:28:24.165Z,15.65
2022-10-07T06:29:11.187Z,17.23
2022-10-07T06:29:58.344Z,16.62
2022-10-07T06:30:45.262Z,19.17
2022-10-07T06:31:32.696Z,14.65
2022-10-07T06:32:19.907Z,13.82
2022-10-07T06:33:06.888Z,18.12
2022-10-07T06:33:54.630Z,16.15
2022-10-07T06:34:41.962Z,23.23
2022-10-07T06:35:29.268Z,18.30
2022-10-07T06:36:16.396Z,20.77
2022-10-07T06:37:03.427Z,24.77
2022-10-07T06:37:50.514Z,23.05
2022-10-07T06:38:37.607Z,21.85
2022-10-07T06:39:24.558Z,22.20
2022-10-07T06:40:12.164Z,19.35
2022-10-07T06:41:02.967Z,23.92
2022-10-07T06:41:52.598Z,19.58
2022-10-07T06:42:39.615Z,21.10
2022-10-07T06:43:27.695Z,20.17
2022-10-07T06:44:14.617Z,20.30
2022-10-07T06:45:01.525Z,25.40
2022-10-07T06:45:48.371Z,20.35
2022-10-07T06:46:35.265Z,20.15
2022-10-07T06:47:22.225Z,21.12
2022-10-07T06:48:09.117Z,22.92
2022-10-07T06:48:56.076Z,20.77
2022-10-07T06:49:43.046Z,19.17
2022-10-07T06:50:29.834Z,20.33
2022-10-07T06:51:18.682Z,23.00
2022-10-07T06:52:05.766Z,20.58
2022-10-07T06:52:52.613Z,20.45
2022-10-07T06:53:39.649Z,21.45
2022-10-07T06:54:26.614Z,24.70
2022-10-07T06:55:13.607Z,20.95
2022-10-07T06:56:03.546Z,22.98
2022-10-07T06:56:50.468Z,21.90
2022-10-07T06:57:46.006Z,22.50
2022-10-07T06:58:33.645Z,24.83
2022-10-07T06:59:20.556Z,25.55
2022-10-07T07:00:08.169Z,27.70
2022-10-07T07:00:55.251Z,32.97
2022-10-07T07:01:42.354Z,25.30
2022-10-07T07:02:30.697Z,28.87
2022-10-07T07:03:18.076Z,24.90
2022-10-07T07:04:05.377Z,29.63
2022-10-07T07:04:57.223Z,22.92
2022-10-07T07:05:45.896Z,30.20
2022-10-07T07:06:37.976Z,30.40
2022-10-07T07:07:25.296Z,23.35
2022-10-07T07:08:12.375Z,22.50
2022-10-07T07:09:02.576Z,29.42
2022-10-07T07:09:49.556Z,29.73
2022-10-07T07:10:41.127Z,28.67
2022-10-07T07:11:37.176Z,27.85
2022-10-07T07:12:25.647Z,25.77
2022-10-07T07:13:13.526Z,24.52
2022-10-07T07:14:00.425Z,27.55
2022-10-07T07:14:47.417Z,24.63
2022-10-07T07:15:38.715Z,24.55
2022-10-07T07:16:25.935Z,22.42
2022-10-07T07:17:12.805Z,22.83
2022-10-07T07:17:59.996Z,23.40
2022-10-07T07:18:52.168Z,21.02
2022-10-07T07:19:39.019Z,22.90
2022-10-07T07:20:25.997Z,23.77
2022-10-07T07:21:12.866Z,20.92
2022-10-07T07:21:59.785Z,22.30
2022-10-07T07:22:46.727Z,20.77
2022-10-07T07:23:33.555Z,21.00
2022-10-07T07:24:21.185Z,22.20
2022-10-07T07:25:12.147Z,21.77
2022-10-07T07:26:01.016Z,21.60
2022-10-07T07:26:48.548Z,17.83
2022-10-07T07:27:35.511Z,21.58
2022-10-07T07:28:22.887Z,19.75
2022-10-07T07:29:12.236Z,20.90
2022-10-07T07:29:59.155Z,21.85
2022-10-07T07:30:46.126Z,22.25
2022-10-07T07:31:35.087Z,19.90
2022-10-07T07:32:21.960Z,16.80
2022-10-07T07:33:09.246Z,17.00
2022-10-07T07:33:57.926Z,17.08
2022-10-07T07:34:44.838Z,24.33
2022-10-07T07:35:34.795Z,20.23
2022-10-07T07:36:24.526Z,19.95
2022-10-07T07:37:11.399Z,16.33
2022-10-07T07:37:58.627Z,16.77
2022-10-07T07:39:00.476Z,17.60
2022-10-07T07:39:47.325Z,18.52
2022-10-07T07:40:39.683Z,16.62
2022-10-07T07:41:29.678Z,18.27
2022-10-07T07:42:16.586Z,16.67
2022-10-07T07:43:04.207Z,16.40
2022-10-07T07:43:52.485Z,16.77
2022-10-07T07:44:40.374Z,18.65
2022-10-07T07:45:27.455Z,18.27
2022-10-07T07:46:14.257Z,16.27
2022-10-07T07:47:01.446Z,17.58
2022-10-07T07:47:49.766Z,16.60
2022-10-07T07:48:37.985Z,16.73
2022-10-07T07:49:24.965Z,15.60
2022-10-07T07:50:11.837Z,17.73
2022-10-07T07:50:58.759Z,14.60
2022-10-07T07:51:45.615Z,16.10
2022-10-07T07:52:33.138Z,18.52
2022-10-07T07:53:20.473Z,14.35
2022-10-07T07:54:07.378Z,13.38
2022-10-07T07:54:58.075Z,12.70
2022-10-07T07:55:55.786Z,13.40
2022-10-07T07:56:43.025Z,13.68
2022-10-07T07:57:30.938Z,14.23
2022-10-07T07:58:18.256Z,13.73
2022-10-07T07:59:06.465Z,14.35
2022-10-07T07:59:54.876Z,14.43
2022-10-07T08:00:42.586Z,16.55
2022-10-07T08:01:32.155Z,12.98
2022-10-07T08:02:20.661Z,14.05
2022-10-07T08:03:08.124Z,12.93
2022-10-07T08:03:56.250Z,17.12
2022-10-07T08:04:43.635Z,13.70
2022-10-07T08:05:31.005Z,15.40
2022-10-07T08:06:20.606Z,13.50
2022-10-07T08:07:07.787Z,14.10
2022-10-07T08:07:55.127Z,14.63
2022-10-07T08:08:43.374Z,13.88
2022-10-07T08:09:30.256Z,14.95
2022-10-07T08:10:17.276Z,20.98
2022-10-07T08:11:11.575Z,15.27
2022-10-07T08:11:58.436Z,13.13
2022-10-07T08:12:45.285Z,14.30
2022-10-07T08:13:33.284Z,11.88
2022-10-07T08:14:20.228Z,15.60
2022-10-07T08:15:08.143Z,12.55
2022-10-07T08:15:58.072Z,13.35
2022-10-07T08:16:45.387Z,18.15
2022-10-07T08:17:32.535Z,12.88
2022-10-07T08:18:19.806Z,13.13
2022-10-07T08:19:07.429Z,12.45
2022-10-07T08:19:55.551Z,12.13
2022-10-07T08:20:42.326Z,14.75
2022-10-07T08:21:33.135Z,12.23
2022-10-07T08:22:20.440Z,12.40
2022-10-07T08:23:07.305Z,11.32
2022-10-07T08:23:56.644Z,12.20
2022-10-07T08:24:43.901Z,12.37
2022-10-07T08:25:30.831Z,13.77
2022-10-07T08:26:17.738Z,12.52
2022-10-07T08:27:04.536Z,13.70
2022-10-07T08:27:51.891Z,11.45
2022-10-07T08:28:39.938Z,12.50
2022-10-07T08:29:26.805Z,13.05
2022-10-07T08:30:13.956Z,12.52
2022-10-07T08:31:09.375Z,12.65
2022-10-07T08:31:56.415Z,13.88
2022-10-07T08:32:43.439Z,13.02
2022-10-07T08:33:34.517Z,12.65
2022-10-07T08:34:21.374Z,13.32
2022-10-07T08:35:08.711Z,12.35
2022-10-07T08:36:00.215Z,11.05
2022-10-07T08:36:48.875Z,12.02
2022-10-07T08:37:35.765Z,12.10
2022-10-07T08:38:22.666Z,12.02
2022-10-07T08:39:11.075Z,13.40
2022-10-07T08:39:57.845Z,13.73
2022-10-07T08:40:51.092Z,12.52
2022-10-07T08:41:44.215Z,12.07
2022-10-07T08:42:35.866Z,16.02
2022-10-07T08:43:24.329Z,11.75
2022-10-07T08:44:16.690Z,11.30
2022-10-07T08:45:04.495Z,9.95
2022-10-07T08:45:53.239Z,11.57
2022-10-07T08:46:54.876Z,11.43
2022-10-07T08:47:46.770Z,13.02
2022-10-07T08:48:35.295Z,11.35
2022-10-07T08:49:37.274Z,10.07
2022-10-07T08:50:28.595Z,11.38
2022-10-07T08:51:25.726Z,10.27
2022-10-07T08:52:26.805Z,14.75
2022-10-07T08:53:21.545Z,10.50
2022-10-07T08:54:13.675Z,11.45
2022-10-07T08:55:04.120Z,11.00
2022-10-07T08:56:07.047Z,10.85
2022-10-07T08:56:55.635Z,11.68
2022-10-07T08:57:48.718Z,10.75
2022-10-07T08:58:55.674Z,12.02
2022-10-07T08:59:49.646Z,11.93
2022-10-07T09:01:00.225Z,9.57
2022-10-07T09:01:49.902Z,10.98
2022-10-07T09:02:56.060Z,10.43
2022-10-07T09:04:27.996Z,9.63
2022-10-07T09:05:39.315Z,10.55
2022-10-07T09:06:33.775Z,12.85
2022-10-07T09:07:24.035Z,8.02
2022-10-07T09:08:27.687Z,10.23
2022-10-07T09:09:28.185Z,8.75
2022-10-07T09:10:26.716Z,8.50
2022-10-07T09:11:18.446Z,8.45
2022-10-07T09:12:09.826Z,9.35
2022-10-07T09:13:20.457Z,8.13
2022-10-07T09:14:26.188Z,8.20
2022-10-07T09:15:31.824Z,8.50
2022-10-07T09:16:29.129Z,9.18
2022-10-07T09:17:22.679Z,8.20
2022-10-07T09:18:32.105Z,9.13
2022-10-07T09:19:53.294Z,10.18
2022-10-07T09:20:43.457Z,8.07
2022-10-07T09:21:37.527Z,7.82
2022-10-07T09:22:32.964Z,8.07
2022-10-07T09:23:23.816Z,7.22
2022-10-07T09:24:25.804Z,8.60
2022-10-07T09:25:13.759Z,9.82
2022-10-07T09:26:01.226Z,8.40
2022-10-07T09:26:48.385Z,8.23
2022-10-07T09:27:35.265Z,13.10
2022-10-07T09:28:27.062Z,10.98
2022-10-07T09:29:14.194Z,14.68
2022-10-07T09:30:01.985Z,10.70
2022-10-07T09:30:48.912Z,10.52
2022-10-07T09:31:35.980Z,9.88
2022-10-07T09:32:23.176Z,9.63
2022-10-07T09:33:16.584Z,9.48
2022-10-07T09:34:04.136Z,9.85
2022-10-07T09:34:52.655Z,9.27
2022-10-07T09:35:39.650Z,10.23
2022-10-07T09:36:27.293Z,11.50
2022-10-07T09:37:25.034Z,11.02
2022-10-07T09:38:11.835Z,10.02
2022-10-07T09:39:16.308Z,8.90
2022-10-07T09:40:31.706Z,11.32
2022-10-07T09:41:35.475Z,12.48
2022-10-07T09:42:27.205Z,10.95
2022-10-07T09:43:18.435Z,10.85
2022-10-07T09:44:16.825Z,10.68
2022-10-07T09:45:22.015Z,12.43
2022-10-07T09:46:29.857Z,10.55
2022-10-07T09:47:23.109Z,9.50
2022-10-07T09:48:21.969Z,9.93
2022-10-07T09:49:34.271Z,9.50
2022-10-07T09:50:39.885Z,10.38
2022-10-07T09:51:27.846Z,9.85
2022-10-07T09:52:18.835Z,9.40
2022-10-07T09:53:25.357Z,8.95
2022-10-07T09:54:20.504Z,9.02
2022-10-07T09:55:39.676Z,10.43
2022-10-07T09:56:55.044Z,8.35
2022-10-07T09:57:42.127Z,9.73
2022-10-07T09:58:32.277Z,12.48
2022-10-07T09:59:24.984Z,9.20
2022-10-07T10:00:19.355Z,9.93
2022-10-07T10:01:12.313Z,8.38
2022-10-07T10:02:16.130Z,8.65
2022-10-07T10:03:07.846Z,6.87
2022-10-07T10:04:01.645Z,8.82
2022-10-07T10:04:55.229Z,11.50
2022-10-07T10:05:53.004Z,8.70
2022-10-07T10:06:48.360Z,7.93
2022-10-07T10:07:36.823Z,9.43
2022-10-07T10:08:34.172Z,7.32
2022-10-07T10:09:23.485Z,7.97
2022-10-07T10:10:18.775Z,9.18
2022-10-07T10:11:20.894Z,8.52
2022-10-07T10:12:19.115Z,7.97
2022-10-07T10:13:06.794Z,8.32
2022-10-07T10:13:53.663Z,9.95
2022-10-07T10:14:48.138Z,6.72
2022-10-07T10:15:43.127Z,9.93
2022-10-07T10:16:41.452Z,6.97
2022-10-07T10:17:36.965Z,8.68
2022-10-07T10:18:39.471Z,10.82
2022-10-07T10:19:27.665Z,10.80
2022-10-07T10:20:36.295Z,9.05
2022-10-07T10:21:23.108Z,8.98
2022-10-07T10:22:31.393Z,9.40
2022-10-07T10:23:31.494Z,6.80
2022-10-07T10:24:38.465Z,6.97
2022-10-07T10:26:11.424Z,7.20
2022-10-07T10:27:07.399Z,10.55
2022-10-07T10:28:11.418Z,7.43
2022-10-07T10:29:14.076Z,7.57
2022-10-07T10:30:09.635Z,8.45
2022-10-07T10:31:03.065Z,7.72
2022-10-07T10:32:02.534Z,8.75
2022-10-07T10:32:59.834Z,6.87
2022-10-07T10:34:12.745Z,7.72
2022-10-07T10:35:10.028Z,9.52
2022-10-07T10:36:15.035Z,9.07
2022-10-07T10:37:14.515Z,6.87
2022-10-07T10:38:29.045Z,7.47
2022-10-07T10:39:40.423Z,8.30
2022-10-07T10:40:37.695Z,7.18
2022-10-07T10:41:48.696Z,7.40
2022-10-07T10:43:17.276Z,8.38
2022-10-07T10:44:35.185Z,6.95
2022-10-07T10:45:52.949Z,6.70
2022-10-07T10:46:58.781Z,7.70
2022-10-07T10:47:55.126Z,7.78
2022-10-07T10:49:03.595Z,6.70
2022-10-07T10:50:12.407Z,7.97
2022-10-07T10:51:18.159Z,8.52
2022-10-07T10:52:27.585Z,7.15
2022-10-07T10:53:36.528Z,8.82
2022-10-07T10:54:40.525Z,7.82
2022-10-07T10:55:45.519Z,10.48
2022-10-07T10:57:02.035Z,7.12
2022-10-07T10:58:07.184Z,6.22
2022-10-07T10:59:27.417Z,9.15
2022-10-07T11:00:21.495Z,8.50
2022-10-07T11:01:14.145Z,7.87
2022-10-07T11:02:15.863Z,8.60
2022-10-07T11:03:27.675Z,8.00
2022-10-07T11:04:30.613Z,7.65
2022-10-07T11:05:33.398Z,8.40
2022-10-07T11:06:20.715Z,7.03
2022-10-07T11:07:15.799Z,6.90
2022-10-07T11:08:27.500Z,8.13
2022-10-07T11:09:30.708Z,8.75
2022-10-07T11:10:54.955Z,6.93
2022-10-07T11:11:42.985Z,6.90